DLH6EF VRMM-EDDB
Flight info
| Callsign | DLH6EF |
|---|---|
| Flight time | N/A |
| Altitude | 38000 |
| Route | ELBET1B ELBET L894 KITAL P570 EMURU N563 SODEX/N0509F340 N563 BOSEV/N0494F380 N563 ITKEV/N0487F400 N563 ALPOB L768 OBMON/N0513F320 L934 TOKMA/N0487F400 L602 RALKA G795 TASMI L602 ALPET L718 KABAN UL718 ESOTA DCT EKMIN UL718 ASPUL DCT ELNEM DCT ATRIV DCT ERVAK UL718 INB/N0496F280 L746 GIPDA/N0489F400 DCT EVGEG L746 ODERO T86 MATEL T746 ARGES DCT TOBAG DCT EKSUN DCT RUSAG DCT IXORI DCT BADOR DCT IBLIZ DCT NEPAK DCT LOLKA/N0498F280 T710 VAGON T205 NUKRO NUKRO1R |
| Aircraft | A359/H-SDE2E3GHIJ3J4J5LM1ORWXY/LB1D1 |
Departure
| Time | 2026-05-05 09:47 |
|---|---|
| Airport | Velana International Airport (VRMM) |
Arrival
| Time | N/A |
|---|---|
| Airport | Berlin Brandenburg Airport (EDDB) |
| Time | Latitude | Longitude | Altitude | Speed | Heading |
|---|---|---|---|---|---|
| 2026-05-05 09:23 | 4.18350 | 73.52803 | 19 ft | 0 kts | 270° |
| 2026-05-05 09:32 | 4.18350 | 73.52806 | 19 ft | 3 kts | 270° |
| 2026-05-05 09:33 | 4.18347 | 73.52832 | 20 ft | 4 kts | 292° |
| 2026-05-05 09:33 | 4.18333 | 73.52854 | 23 ft | 4 kts | 326° |
| 2026-05-05 09:33 | 4.18316 | 73.52861 | 20 ft | 0 kts | 359° |
| 2026-05-05 09:38 | 4.18354 | 73.52860 | 19 ft | 12 kts | 359° |
| 2026-05-05 09:38 | 4.18466 | 73.52858 | 22 ft | 17 kts | 359° |
| 2026-05-05 09:39 | 4.18545 | 73.52857 | 21 ft | 15 kts | 359° |
| 2026-05-05 09:40 | 4.18623 | 73.52856 | 21 ft | 12 kts | 359° |
| 2026-05-05 09:41 | 4.18659 | 73.52855 | 19 ft | 11 kts | 359° |
| 2026-05-05 09:41 | 4.18726 | 73.52854 | 21 ft | 8 kts | 359° |
| 2026-05-05 09:41 | 4.18818 | 73.52852 | 20 ft | 18 kts | 359° |
| 2026-05-05 09:42 | 4.18896 | 73.52852 | 22 ft | 9 kts | 6° |
| 2026-05-05 09:42 | 4.18928 | 73.52879 | 23 ft | 6 kts | 64° |
| 2026-05-05 09:42 | 4.18995 | 73.52922 | 19 ft | 19 kts | 6° |
| 2026-05-05 09:42 | 4.19174 | 73.52917 | 22 ft | 30 kts | 358° |
| 2026-05-05 09:43 | 4.19373 | 73.52913 | 22 ft | 26 kts | 359° |
| 2026-05-05 09:43 | 4.19543 | 73.52909 | 20 ft | 23 kts | 359° |
| 2026-05-05 09:43 | 4.19689 | 73.52906 | 20 ft | 19 kts | 359° |
| 2026-05-05 09:43 | 4.19869 | 73.52902 | 18 ft | 28 kts | 359° |
| 2026-05-05 09:44 | 4.20053 | 73.52900 | 22 ft | 24 kts | 0° |
| 2026-05-05 09:44 | 4.20210 | 73.52899 | 19 ft | 21 kts | 359° |
| 2026-05-05 09:44 | 4.20375 | 73.52898 | 21 ft | 29 kts | 360° |
| 2026-05-05 09:44 | 4.20570 | 73.52895 | 18 ft | 26 kts | 358° |
| 2026-05-05 09:45 | 4.20739 | 73.52890 | 21 ft | 22 kts | 358° |
| 2026-05-05 09:45 | 4.20879 | 73.52909 | 22 ft | 18 kts | 15° |
| 2026-05-05 09:45 | 4.20991 | 73.52941 | 21 ft | 15 kts | 14° |
| 2026-05-05 09:45 | 4.21093 | 73.52967 | 21 ft | 20 kts | 14° |
| 2026-05-05 09:46 | 4.21230 | 73.53015 | 23 ft | 17 kts | 45° |
| 2026-05-05 09:46 | 4.21228 | 73.53090 | 22 ft | 8 kts | 136° |
| 2026-05-05 09:46 | 4.21192 | 73.53099 | 21 ft | 4 kts | 179° |
| 2026-05-05 09:46 | 4.21105 | 73.53101 | 18 ft | 33 kts | 179° |
| 2026-05-05 09:47 | 4.20649 | 73.53095 | 21 ft | 96 kts | 180° |
| 2026-05-05 09:47 | 4.19789 | 73.53104 | 21 ft | 149 kts | 179° |
| 2026-05-05 09:47 | 4.18660 | 73.53065 | 438 ft | 162 kts | 183° |
| 2026-05-05 09:47 | 4.17544 | 73.53065 | 1058 ft | 166 kts | 185° |
| 2026-05-05 09:48 | 4.16287 | 73.53068 | 1402 ft | 194 kts | 184° |
| 2026-05-05 09:48 | 4.14851 | 73.53074 | 1824 ft | 216 kts | 183° |
| 2026-05-05 09:48 | 4.13314 | 73.53081 | 2464 ft | 230 kts | 183° |
| 2026-05-05 09:48 | 4.11646 | 73.53087 | 2942 ft | 250 kts | 183° |
| 2026-05-05 09:49 | 4.09853 | 73.53091 | 3530 ft | 262 kts | 183° |
| 2026-05-05 09:49 | 4.08012 | 73.53095 | 4044 ft | 269 kts | 183° |
| 2026-05-05 09:49 | 4.06127 | 73.53100 | 4624 ft | 271 kts | 183° |
| 2026-05-05 09:49 | 4.04228 | 73.53103 | 5198 ft | 274 kts | 182° |
| 2026-05-05 09:50 | 4.02323 | 73.53106 | 5807 ft | 276 kts | 183° |
| 2026-05-05 09:50 | 4.00407 | 73.52924 | 6389 ft | 276 kts | 198° |
| 2026-05-05 09:50 | 3.98723 | 73.52063 | 6947 ft | 272 kts | 223° |
| 2026-05-05 09:50 | 3.97602 | 73.50557 | 7515 ft | 271 kts | 248° |
| 2026-05-05 09:51 | 3.97205 | 73.48724 | 8106 ft | 273 kts | 268° |
| 2026-05-05 09:51 | 3.97200 | 73.46805 | 8719 ft | 276 kts | 270° |
| 2026-05-05 09:51 | 3.97223 | 73.44879 | 9420 ft | 278 kts | 270° |
| 2026-05-05 09:51 | 3.97236 | 73.42935 | 10083 ft | 282 kts | 270° |
| 2026-05-05 09:52 | 3.97242 | 73.40932 | 10502 ft | 295 kts | 270° |
| 2026-05-05 09:52 | 3.97249 | 73.38817 | 10788 ft | 310 kts | 270° |
| 2026-05-05 09:52 | 3.97247 | 73.36614 | 11055 ft | 324 kts | 270° |
| 2026-05-05 09:52 | 3.97243 | 73.34307 | 11329 ft | 337 kts | 270° |
| 2026-05-05 09:53 | 3.97240 | 73.31916 | 11588 ft | 349 kts | 270° |
| 2026-05-05 09:53 | 3.97237 | 73.29441 | 11839 ft | 360 kts | 270° |
| 2026-05-05 09:53 | 3.97234 | 73.26907 | 12154 ft | 368 kts | 270° |
| 2026-05-05 09:53 | 3.97272 | 73.24328 | 12586 ft | 372 kts | 273° |
| 2026-05-05 09:54 | 3.97638 | 73.21751 | 12973 ft | 378 kts | 283° |
| 2026-05-05 09:54 | 3.98516 | 73.19237 | 13263 ft | 385 kts | 295° |
| 2026-05-05 09:54 | 3.99874 | 73.16971 | 13786 ft | 386 kts | 305° |
| 2026-05-05 09:54 | 4.01681 | 73.14958 | 14160 ft | 392 kts | 317° |
| 2026-05-05 09:55 | 4.03887 | 73.13324 | 14487 ft | 399 kts | 328° |
| 2026-05-05 09:55 | 4.06419 | 73.12153 | 14872 ft | 403 kts | 338° |
| 2026-05-05 09:55 | 4.09045 | 73.11122 | 15233 ft | 406 kts | 333° |
| 2026-05-05 09:55 | 4.11543 | 73.09798 | 15619 ft | 407 kts | 329° |
| 2026-05-05 09:56 | 4.14001 | 73.08381 | 15989 ft | 410 kts | 328° |
| 2026-05-05 09:56 | 4.16482 | 73.06942 | 16374 ft | 413 kts | 328° |
| 2026-05-05 09:56 | 4.18976 | 73.05497 | 16745 ft | 416 kts | 328° |
| 2026-05-05 09:56 | 4.21495 | 73.04036 | 17132 ft | 418 kts | 328° |
| 2026-05-05 09:57 | 4.24022 | 73.02570 | 17500 ft | 421 kts | 328° |
| 2026-05-05 09:57 | 4.26558 | 73.01098 | 17854 ft | 424 kts | 328° |
| 2026-05-05 09:57 | 4.29124 | 72.99609 | 18207 ft | 426 kts | 328° |
| 2026-05-05 09:57 | 4.31690 | 72.98119 | 18517 ft | 428 kts | 328° |
| 2026-05-05 09:58 | 4.34281 | 72.96616 | 18824 ft | 431 kts | 328° |
| 2026-05-05 09:58 | 4.36877 | 72.95108 | 19132 ft | 433 kts | 328° |
| 2026-05-05 09:58 | 4.39491 | 72.93591 | 19387 ft | 437 kts | 328° |
| 2026-05-05 09:58 | 4.42133 | 72.92056 | 19674 ft | 439 kts | 328° |
| 2026-05-05 09:59 | 4.44776 | 72.90522 | 20003 ft | 440 kts | 328° |
| 2026-05-05 09:59 | 4.47437 | 72.88977 | 20302 ft | 442 kts | 328° |
| 2026-05-05 09:59 | 4.50109 | 72.87426 | 20606 ft | 444 kts | 328° |
| 2026-05-05 09:59 | 4.52788 | 72.85869 | 20894 ft | 447 kts | 328° |
| 2026-05-05 10:00 | 4.55479 | 72.84306 | 21207 ft | 448 kts | 328° |
| 2026-05-05 10:00 | 4.58185 | 72.82733 | 21541 ft | 449 kts | 328° |
| 2026-05-05 10:00 | 4.60892 | 72.81161 | 21849 ft | 451 kts | 328° |
| 2026-05-05 10:00 | 4.63621 | 72.79575 | 22159 ft | 454 kts | 328° |
| 2026-05-05 10:01 | 4.66355 | 72.77987 | 22465 ft | 456 kts | 328° |
| 2026-05-05 10:01 | 4.69103 | 72.76390 | 22772 ft | 458 kts | 328° |
| 2026-05-05 10:01 | 4.71863 | 72.74786 | 23097 ft | 460 kts | 328° |
| 2026-05-05 10:01 | 4.74644 | 72.73169 | 23396 ft | 462 kts | 329° |
| 2026-05-05 10:02 | 4.77425 | 72.71553 | 23608 ft | 465 kts | 328° |
| 2026-05-05 10:02 | 4.80238 | 72.69918 | 23843 ft | 467 kts | 329° |
| 2026-05-05 10:02 | 4.83056 | 72.68280 | 24086 ft | 470 kts | 328° |
| 2026-05-05 10:02 | 4.85892 | 72.66631 | 24358 ft | 471 kts | 328° |
| 2026-05-05 10:03 | 4.88728 | 72.64981 | 24644 ft | 473 kts | 329° |
| 2026-05-05 10:03 | 4.91579 | 72.63323 | 24929 ft | 474 kts | 329° |
| 2026-05-05 10:03 | 4.94444 | 72.61657 | 25208 ft | 477 kts | 328° |
| 2026-05-05 10:03 | 4.97322 | 72.59983 | 25476 ft | 479 kts | 329° |
| 2026-05-05 10:04 | 5.00217 | 72.58299 | 25690 ft | 483 kts | 329° |
| 2026-05-05 10:04 | 5.03127 | 72.56605 | 26025 ft | 484 kts | 329° |
| 2026-05-05 10:04 | 5.06013 | 72.54926 | 26354 ft | 486 kts | 329° |
| 2026-05-05 10:04 | 5.08970 | 72.53205 | 26717 ft | 487 kts | 329° |
| 2026-05-05 10:05 | 5.11918 | 72.51490 | 26994 ft | 491 kts | 329° |
| 2026-05-05 10:05 | 5.14879 | 72.49767 | 27289 ft | 494 kts | 329° |
| 2026-05-05 10:05 | 5.17823 | 72.48053 | 27583 ft | 497 kts | 329° |
| 2026-05-05 10:05 | 5.20821 | 72.46307 | 27919 ft | 499 kts | 329° |
| 2026-05-05 10:06 | 5.23833 | 72.44553 | 28229 ft | 501 kts | 329° |
| 2026-05-05 10:06 | 5.26845 | 72.42799 | 28588 ft | 503 kts | 329° |
| 2026-05-05 10:06 | 5.29881 | 72.41031 | 28763 ft | 507 kts | 329° |
| 2026-05-05 10:06 | 5.32941 | 72.39249 | 29019 ft | 511 kts | 329° |
| 2026-05-05 10:07 | 5.36030 | 72.37450 | 29281 ft | 513 kts | 329° |
| 2026-05-05 10:07 | 5.39117 | 72.35651 | 29604 ft | 514 kts | 329° |
| 2026-05-05 10:07 | 5.42209 | 72.33849 | 29875 ft | 516 kts | 329° |
| 2026-05-05 10:07 | 5.45321 | 72.32036 | 30119 ft | 518 kts | 330° |
| 2026-05-05 10:08 | 5.48443 | 72.30217 | 30242 ft | 522 kts | 330° |
| 2026-05-05 10:08 | 5.51597 | 72.28378 | 30392 ft | 525 kts | 330° |
| 2026-05-05 10:08 | 5.54749 | 72.26540 | 30809 ft | 521 kts | 330° |
| 2026-05-05 10:08 | 5.57865 | 72.24724 | 31205 ft | 518 kts | 330° |
| 2026-05-05 10:09 | 5.60976 | 72.22910 | 31621 ft | 515 kts | 330° |
| 2026-05-05 10:09 | 5.64076 | 72.21102 | 31818 ft | 517 kts | 330° |
| 2026-05-05 10:09 | 5.67187 | 72.19287 | 32092 ft | 517 kts | 330° |
| 2026-05-05 10:09 | 5.70309 | 72.17466 | 32308 ft | 518 kts | 330° |
| 2026-05-05 10:10 | 5.73419 | 72.15652 | 32731 ft | 515 kts | 330° |
| 2026-05-05 10:10 | 5.76505 | 72.13851 | 33047 ft | 513 kts | 330° |
| 2026-05-05 10:10 | 5.79578 | 72.12058 | 33456 ft | 510 kts | 330° |
| 2026-05-05 10:10 | 5.82648 | 72.10267 | 33628 ft | 511 kts | 330° |
| 2026-05-05 10:11 | 5.85729 | 72.08468 | 33878 ft | 512 kts | 330° |
| 2026-05-05 10:11 | 5.88803 | 72.06674 | 34117 ft | 511 kts | 330° |
| 2026-05-05 10:11 | 5.91861 | 72.04889 | 34450 ft | 507 kts | 330° |
| 2026-05-05 10:11 | 5.94968 | 72.03231 | 34732 ft | 505 kts | 335° |
| 2026-05-05 10:12 | 5.98118 | 72.01784 | 34984 ft | 503 kts | 336° |
| 2026-05-05 10:12 | 6.01298 | 72.00323 | 35183 ft | 503 kts | 336° |
| 2026-05-05 10:12 | 6.04475 | 71.98840 | 35353 ft | 503 kts | 335° |
| 2026-05-05 10:12 | 6.07630 | 71.97353 | 35639 ft | 501 kts | 335° |
| 2026-05-05 10:13 | 6.10777 | 71.95861 | 35922 ft | 498 kts | 335° |
| 2026-05-05 10:13 | 6.13897 | 71.94378 | 36130 ft | 498 kts | 335° |
| 2026-05-05 10:13 | 6.17026 | 71.92887 | 36283 ft | 498 kts | 335° |
| 2026-05-05 10:13 | 6.20163 | 71.91392 | 36439 ft | 498 kts | 335° |
| 2026-05-05 10:14 | 6.23286 | 71.89901 | 36640 ft | 497 kts | 335° |
| 2026-05-05 10:14 | 6.26407 | 71.88411 | 36865 ft | 496 kts | 335° |
| 2026-05-05 10:14 | 6.29527 | 71.86921 | 36971 ft | 497 kts | 335° |
| 2026-05-05 10:14 | 6.32644 | 71.85433 | 37107 ft | 497 kts | 335° |
| 2026-05-05 10:15 | 6.35762 | 71.83900 | 37263 ft | 497 kts | 333° |
| 2026-05-05 10:15 | 6.38693 | 71.82049 | 37422 ft | 497 kts | 324° |
| 2026-05-05 10:15 | 6.41463 | 71.79985 | 37599 ft | 496 kts | 323° |
| 2026-05-05 10:15 | 6.44188 | 71.77862 | 37796 ft | 495 kts | 323° |
| 2026-05-05 10:16 | 6.49618 | 71.73552 | 37855 ft | 500 kts | 323° |
| 2026-05-05 10:16 | 6.55092 | 71.69221 | 37852 ft | 500 kts | 323° |
| 2026-05-05 10:17 | 6.60565 | 71.64923 | 37854 ft | 498 kts | 323° |
| 2026-05-05 10:17 | 6.66001 | 71.60664 | 37854 ft | 498 kts | 323° |
| 2026-05-05 10:18 | 6.71464 | 71.56384 | 37855 ft | 498 kts | 323° |
| 2026-05-05 10:18 | 6.76960 | 71.52075 | 37853 ft | 498 kts | 323° |
| 2026-05-05 10:19 | 6.82392 | 71.47815 | 37853 ft | 498 kts | 323° |
| 2026-05-05 10:19 | 6.87855 | 71.43528 | 37853 ft | 497 kts | 323° |
| 2026-05-05 10:20 | 6.93305 | 71.39251 | 37855 ft | 497 kts | 323° |
| 2026-05-05 10:20 | 6.98752 | 71.34975 | 37859 ft | 496 kts | 323° |
| 2026-05-05 10:21 | 7.04199 | 71.30698 | 37859 ft | 496 kts | 323° |
| 2026-05-05 10:21 | 7.09645 | 71.26420 | 37851 ft | 496 kts | 323° |
| 2026-05-05 10:22 | 7.15086 | 71.22145 | 37853 ft | 496 kts | 323° |
| 2026-05-05 10:22 | 7.20526 | 71.17868 | 37852 ft | 496 kts | 323° |
| 2026-05-05 10:23 | 7.25971 | 71.13586 | 37853 ft | 495 kts | 323° |
| 2026-05-05 10:23 | 7.31400 | 71.09316 | 37854 ft | 495 kts | 323° |
| 2026-05-05 10:24 | 7.36820 | 71.05051 | 37851 ft | 495 kts | 323° |
| 2026-05-05 10:24 | 7.41338 | 71.01497 | 37854 ft | 495 kts | 323° |
| 2026-05-05 10:25 | 7.46764 | 70.97225 | 37854 ft | 495 kts | 323° |
| 2026-05-05 10:25 | 7.52189 | 70.92956 | 37854 ft | 495 kts | 323° |
| 2026-05-05 10:26 | 7.57616 | 70.88678 | 37854 ft | 495 kts | 323° |
| 2026-05-05 10:26 | 7.63045 | 70.84389 | 37853 ft | 496 kts | 323° |
| 2026-05-05 10:27 | 7.68479 | 70.80099 | 37853 ft | 497 kts | 323° |
| 2026-05-05 10:27 | 7.73932 | 70.75793 | 37854 ft | 497 kts | 323° |
| 2026-05-05 10:28 | 7.79380 | 70.71491 | 37857 ft | 497 kts | 323° |
| 2026-05-05 10:28 | 7.84822 | 70.67191 | 37857 ft | 497 kts | 323° |
| 2026-05-05 10:29 | 7.90266 | 70.62889 | 37855 ft | 496 kts | 322° |
| 2026-05-05 10:29 | 7.95678 | 70.58611 | 37857 ft | 493 kts | 322° |
| 2026-05-05 10:30 | 8.01064 | 70.54351 | 37857 ft | 492 kts | 322° |
| 2026-05-05 10:30 | 8.06467 | 70.50076 | 37862 ft | 496 kts | 323° |
| 2026-05-05 10:31 | 8.11892 | 70.45784 | 37858 ft | 501 kts | 323° |
| 2026-05-05 10:31 | 8.17367 | 70.41450 | 37857 ft | 500 kts | 323° |
| 2026-05-05 10:32 | 8.22841 | 70.37114 | 37850 ft | 500 kts | 322° |
| 2026-05-05 10:32 | 8.28328 | 70.32767 | 37861 ft | 503 kts | 322° |
| 2026-05-05 10:33 | 8.33840 | 70.28398 | 37859 ft | 503 kts | 322° |
| 2026-05-05 10:33 | 8.39342 | 70.24036 | 37860 ft | 503 kts | 322° |
| 2026-05-05 10:34 | 8.44848 | 70.19669 | 37869 ft | 504 kts | 322° |
| 2026-05-05 10:34 | 8.50357 | 70.15298 | 37860 ft | 504 kts | 322° |
| 2026-05-05 10:35 | 8.55871 | 70.10921 | 37848 ft | 503 kts | 322° |
| 2026-05-05 10:35 | 8.61384 | 70.06544 | 37858 ft | 505 kts | 322° |
| 2026-05-05 10:36 | 8.66921 | 70.02145 | 37859 ft | 506 kts | 322° |
| 2026-05-05 10:36 | 8.72452 | 69.97750 | 37859 ft | 506 kts | 322° |
| 2026-05-05 10:37 | 8.77986 | 69.93351 | 37859 ft | 506 kts | 322° |
| 2026-05-05 10:37 | 8.83521 | 69.88949 | 37862 ft | 506 kts | 322° |
| 2026-05-05 10:38 | 8.88943 | 69.84558 | 37867 ft | 493 kts | 321° |
| 2026-05-05 10:38 | 8.94222 | 69.80276 | 37867 ft | 481 kts | 321° |
| 2026-05-05 10:39 | 8.99400 | 69.76127 | 37867 ft | 469 kts | 321° |
| 2026-05-05 10:39 | 9.04459 | 69.72096 | 37865 ft | 456 kts | 321° |
| 2026-05-05 10:40 | 9.09377 | 69.68181 | 37870 ft | 444 kts | 321° |
| 2026-05-05 10:40 | 9.14153 | 69.64372 | 37869 ft | 430 kts | 321° |
| 2026-05-05 10:41 | 9.18773 | 69.60687 | 37869 ft | 415 kts | 321° |
| 2026-05-05 10:41 | 9.23193 | 69.57159 | 37869 ft | 399 kts | 320° |
| 2026-05-05 10:42 | 9.27453 | 69.53757 | 37869 ft | 381 kts | 320° |
| 2026-05-05 10:42 | 9.29509 | 69.52115 | 37866 ft | 371 kts | 321° |
| 2026-05-05 10:43 | 9.33508 | 69.48881 | 37596 ft | 370 kts | 321° |
| 2026-05-05 10:43 | 9.37425 | 69.45593 | 37671 ft | 362 kts | 320° |
| 2026-05-05 10:43 | 9.39348 | 69.43923 | 37544 ft | 365 kts | 319° |
| 2026-05-05 10:44 | 9.41261 | 69.42221 | 37365 ft | 367 kts | 318° |
| 2026-05-05 10:44 | 9.45001 | 69.38751 | 37415 ft | 361 kts | 317° |
| 2026-05-05 10:44 | 9.46812 | 69.36993 | 37306 ft | 363 kts | 316° |
| 2026-05-05 10:45 | 9.48613 | 69.35189 | 37166 ft | 365 kts | 315° |
| 2026-05-05 10:45 | 9.52116 | 69.31492 | 37176 ft | 361 kts | 313° |
| 2026-05-05 10:46 | 9.55457 | 69.27686 | 37011 ft | 363 kts | 310° |
| 2026-05-05 10:46 | 9.58638 | 69.23739 | 37005 ft | 359 kts | 308° |
| 2026-05-05 10:47 | 9.61605 | 69.19702 | 36927 ft | 358 kts | 305° |
| 2026-05-05 10:47 | 9.63031 | 69.17613 | 36802 ft | 361 kts | 304° |
| 2026-05-05 10:47 | 9.64407 | 69.15490 | 36728 ft | 361 kts | 303° |
| 2026-05-05 10:48 | 9.66995 | 69.11159 | 36798 ft | 356 kts | 300° |
| 2026-05-05 10:48 | 9.69330 | 69.06756 | 36696 ft | 356 kts | 297° |
| 2026-05-05 10:48 | 9.70417 | 69.04493 | 36586 ft | 358 kts | 295° |
| 2026-05-05 10:49 | 9.71443 | 69.02193 | 36527 ft | 358 kts | 293° |
| 2026-05-05 10:49 | 9.73282 | 68.97542 | 36566 ft | 353 kts | 290° |
| 2026-05-05 10:50 | 9.74823 | 68.92822 | 36502 ft | 353 kts | 286° |
| 2026-05-05 10:50 | 9.75483 | 68.90419 | 36386 ft | 355 kts | 284° |
| 2026-05-05 10:50 | 9.76065 | 68.87988 | 36331 ft | 355 kts | 282° |
| 2026-05-05 10:51 | 9.76976 | 68.83101 | 36398 ft | 350 kts | 278° |
| 2026-05-05 10:51 | 9.77537 | 68.78252 | 36342 ft | 349 kts | 275° |
| 2026-05-05 10:51 | 9.77689 | 68.75792 | 36233 ft | 351 kts | 272° |
| 2026-05-05 10:52 | 9.77752 | 68.73283 | 36153 ft | 352 kts | 270° |
| 2026-05-05 10:52 | 9.77598 | 68.68374 | 36200 ft | 348 kts | 265° |
| 2026-05-05 10:53 | 9.77066 | 68.63526 | 36143 ft | 347 kts | 261° |
| 2026-05-05 10:53 | 9.76653 | 68.61116 | 36039 ft | 349 kts | 258° |
| 2026-05-05 10:53 | 9.76137 | 68.58706 | 35958 ft | 349 kts | 256° |
| 2026-05-05 10:54 | 9.74809 | 68.53996 | 36002 ft | 345 kts | 251° |
| 2026-05-05 10:54 | 9.73092 | 68.49472 | 35948 ft | 344 kts | 246° |
| 2026-05-05 10:55 | 9.70965 | 68.45118 | 35798 ft | 346 kts | 240° |
| 2026-05-05 10:55 | 9.68439 | 68.40987 | 35833 ft | 342 kts | 234° |
| 2026-05-05 10:56 | 9.65563 | 68.37176 | 35764 ft | 341 kts | 229° |
| 2026-05-05 10:56 | 9.62303 | 68.33662 | 35614 ft | 343 kts | 223° |
| 2026-05-05 10:57 | 9.58708 | 68.30517 | 35650 ft | 339 kts | 217° |
| 2026-05-05 10:57 | 9.54848 | 68.27814 | 35576 ft | 338 kts | 210° |
| 2026-05-05 10:58 | 9.50692 | 68.25548 | 35446 ft | 339 kts | 204° |
| 2026-05-05 10:58 | 9.46338 | 68.23787 | 35511 ft | 334 kts | 197° |
| 2026-05-05 10:59 | 9.41894 | 68.22585 | 35528 ft | 330 kts | 190° |
| 2026-05-05 10:59 | 9.37334 | 68.21949 | 35326 ft | 333 kts | 183° |
| 2026-05-05 11:00 | 9.32707 | 68.21897 | 35297 ft | 330 kts | 175° |
| 2026-05-05 11:00 | 9.28174 | 68.22447 | 35303 ft | 327 kts | 168° |
| 2026-05-05 11:01 | 9.23758 | 68.23616 | 35128 ft | 330 kts | 160° |
| 2026-05-05 11:01 | 9.19531 | 68.25385 | 35121 ft | 327 kts | 152° |
| 2026-05-05 11:02 | 9.15649 | 68.27696 | 35108 ft | 324 kts | 144° |
| 2026-05-05 11:02 | 9.12122 | 68.30553 | 34964 ft | 325 kts | 136° |
| 2026-05-05 11:03 | 9.09074 | 68.33874 | 35057 ft | 319 kts | 128° |
| 2026-05-05 11:03 | 9.06576 | 68.37587 | 34912 ft | 321 kts | 119° |
| 2026-05-05 11:04 | 9.04653 | 68.41656 | 34803 ft | 322 kts | 110° |
| 2026-05-05 11:04 | 9.03373 | 68.45974 | 34903 ft | 316 kts | 102° |
| 2026-05-05 11:05 | 9.02789 | 68.50369 | 34726 ft | 320 kts | 92° |
| 2026-05-05 11:05 | 9.02902 | 68.54880 | 34660 ft | 321 kts | 84° |
| 2026-05-05 11:06 | 9.03736 | 68.59290 | 34681 ft | 318 kts | 75° |
| 2026-05-05 11:06 | 9.05280 | 68.63499 | 34550 ft | 322 kts | 65° |
| 2026-05-05 11:07 | 9.07519 | 68.67426 | 34523 ft | 322 kts | 56° |
| 2026-05-05 11:07 | 9.10371 | 68.70897 | 34533 ft | 321 kts | 46° |
| 2026-05-05 11:08 | 9.13786 | 68.73833 | 34397 ft | 324 kts | 36° |
| 2026-05-05 11:08 | 9.17675 | 68.76142 | 34361 ft | 324 kts | 26° |
| 2026-05-05 11:09 | 9.21851 | 68.77705 | 34581 ft | 314 kts | 15° |
| 2026-05-05 11:09 | 9.26143 | 68.78459 | 34461 ft | 317 kts | 5° |
| 2026-05-05 11:09 | 9.28375 | 68.78540 | 34304 ft | 322 kts | 359° |
| 2026-05-05 11:10 | 9.30614 | 68.78418 | 34278 ft | 323 kts | 354° |
| 2026-05-05 11:10 | 9.32826 | 68.78091 | 34381 ft | 318 kts | 349° |
| 2026-05-05 11:10 | 9.34959 | 68.77570 | 34484 ft | 313 kts | 343° |
| 2026-05-05 11:11 | 9.38360 | 68.76282 | 34317 ft | 318 kts | 335° |
| 2026-05-05 11:11 | 9.40343 | 68.75241 | 34169 ft | 323 kts | 330° |
| 2026-05-05 11:11 | 9.42240 | 68.74012 | 34160 ft | 323 kts | 325° |
| 2026-05-05 11:11 | 9.43998 | 68.72631 | 34281 ft | 318 kts | 320° |
| 2026-05-05 11:12 | 9.45600 | 68.71114 | 34354 ft | 314 kts | 314° |
| 2026-05-05 11:12 | 9.48375 | 68.67643 | 34142 ft | 322 kts | 304° |
| 2026-05-05 11:13 | 9.50518 | 68.63635 | 34102 ft | 322 kts | 293° |
| 2026-05-05 11:13 | 9.51293 | 68.61529 | 34220 ft | 317 kts | 288° |
| 2026-05-05 11:13 | 9.51866 | 68.59385 | 34229 ft | 316 kts | 282° |
| 2026-05-05 11:13 | 9.52241 | 68.57183 | 34101 ft | 320 kts | 277° |
| 2026-05-05 11:14 | 9.52415 | 68.54918 | 33958 ft | 325 kts | 272° |
| 2026-05-05 11:14 | 9.52136 | 68.50361 | 34035 ft | 321 kts | 261° |
| 2026-05-05 11:15 | 9.51043 | 68.46028 | 34055 ft | 318 kts | 250° |
| 2026-05-05 11:15 | 9.50191 | 68.43943 | 33914 ft | 323 kts | 244° |
| 2026-05-05 11:15 | 9.49132 | 68.41917 | 33837 ft | 326 kts | 239° |
| 2026-05-05 11:16 | 9.46502 | 68.38257 | 33980 ft | 318 kts | 228° |
| 2026-05-05 11:16 | 9.43261 | 68.35206 | 33857 ft | 321 kts | 217° |
| 2026-05-05 11:16 | 9.41414 | 68.33918 | 33754 ft | 324 kts | 211° |
| 2026-05-05 11:17 | 9.39449 | 68.32818 | 33768 ft | 322 kts | 205° |
| 2026-05-05 11:17 | 9.35298 | 68.31242 | 33845 ft | 317 kts | 194° |
| 2026-05-05 11:18 | 9.30925 | 68.30519 | 33677 ft | 321 kts | 182° |
| 2026-05-05 11:18 | 9.26488 | 68.30680 | 33718 ft | 317 kts | 171° |
| 2026-05-05 11:19 | 9.22232 | 68.31713 | 33703 ft | 315 kts | 159° |
| 2026-05-05 11:19 | 9.18267 | 68.33597 | 33599 ft | 316 kts | 148° |
| 2026-05-05 11:20 | 9.14777 | 68.36250 | 33621 ft | 313 kts | 135° |
| 2026-05-05 11:20 | 9.11956 | 68.39538 | 33708 ft | 307 kts | 123° |
| 2026-05-05 11:21 | 9.09927 | 68.43315 | 33625 ft | 307 kts | 111° |